SBCP/CAW METAR and TAF weather

Enter ICAO airport designator
Station Type Date Time Source
SBCP METAR 2021/02/24 17:00 UTC NOAA

SBCP 241700Z 34004KT 9999 SCT020 33/20 Q1010


Station Type Date Time Source
SBCP Decoded METAR 2021/02/24 17:00 UTC NOAA

Campos, Brazil (SBCP) 21-45S 041-20W 11M
Feb 24, 2021 - 12:00 PM EST / 2021.02.24 1700 UTC
Wind: from the NNW (340 degrees) at 5 MPH (4 KT):0
Visibility: greater than 7 mile(s):0
Sky conditions: partly cloudy
Temperature: 91 F (33 C)
Heat index: 94.6 F (34.8 C):1
Dew Point: 68 F (20 C)
Relative Humidity: 46%
Pressure (altimeter): 29.83 in. Hg (1010 hPa)
ob: SBCP 241700Z 34004KT 9999 SCT020 33/20 Q1010
cycle: 17

Station Type Date Time Source
SBCP TAF 2021/02/24 18:52 UTC NOAA

TAF SBCP 241500Z 2418/2506 09010KT 9999 SCT020 TX29/2419Z TN23/2506Z
BECMG 2419/2421 06015KT
RMK PGY

Example: see airport list